The Canyons, Utah
Current Conditions -  °F | °C
As of 10:15 PM on Monday 22 Dec 2014 (Local Time) from K36U Reporting Station
Broken Clouds Broken Clouds  
Wind Chill: 22°   Ceiling: 7500
Heat Index: 32°   Visibility: 10mi
Dew Point: 21°   Wind: 15mph
Humidity: 64%   Direction: 350°N
Pressure: 30.11"   Gusts: NA
Location:  40.71°N, 111.53°W
Report Text: K36U 230515Z AUTO 35013KT 10SM BKN075 00/M06 A3011 RMK AO2
Loading
Personal Weather Stations






























Interactive Weather Map New forecast layout! Learn more

10-Day Weather Forecast

Advertisements
Track Severe Weather on mobile